sensor_id;sensor_type;location;lat;lon;timestamp;pressure;altitude;pressure_sealevel;temperature;humidity
56632;BME280;42503;39.928;-75.152;2023-01-05T00:01:49;100787.22;;;22.28;49.14
56632;BME280;42503;39.928;-75.152;2023-01-05T00:11:50;100759.66;;;22.27;48.83
56632;BME280;42503;39.928;-75.152;2023-01-05T00:22:15;100729.00;;;22.27;48.73
56632;BME280;42503;39.928;-75.152;2023-01-05T00:32:32;100748.19;;;22.28;48.68
56632;BME280;42503;39.928;-75.152;2023-01-05T00:42:33;100691.81;;;22.07;48.49
56632;BME280;42503;39.928;-75.152;2023-01-05T00:52:35;100695.63;;;22.17;48.61
56632;BME280;42503;39.928;-75.152;2023-01-05T01:02:36;100694.31;;;22.09;49.23
56632;BME280;42503;39.928;-75.152;2023-01-05T01:12:38;100728.69;;;22.28;50.21
56632;BME280;42503;39.928;-75.152;2023-01-05T01:22:39;100737.25;;;22.37;50.94
56632;BME280;42503;39.928;-75.152;2023-01-05T01:32:40;100748.09;;;22.39;51.80
56632;BME280;42503;39.928;-75.152;2023-01-05T01:42:48;100768.16;;;22.41;51.77
56632;BME280;42503;39.928;-75.152;2023-01-05T01:52:52;100765.88;;;22.43;51.69
56632;BME280;42503;39.928;-75.152;2023-01-05T02:02:55;100765.31;;;22.46;51.64
56632;BME280;42503;39.928;-75.152;2023-01-05T02:13:27;100753.88;;;22.18;51.22
56632;BME280;42503;39.928;-75.152;2023-01-05T02:23:51;100787.38;;;22.42;51.34
56632;BME280;42503;39.928;-75.152;2023-01-05T02:44:18;100778.69;;;22.44;51.33
56632;BME280;42503;39.928;-75.152;2023-01-05T02:54:24;100757.69;;;22.27;51.30
56632;BME280;42503;39.928;-75.152;2023-01-05T03:04:28;100792.63;;;22.44;50.97
56632;BME280;42503;39.928;-75.152;2023-01-05T03:14:39;100767.03;;;22.42;50.97
56632;BME280;42503;39.928;-75.152;2023-01-05T03:24:43;100762.66;;;22.30;50.86
56632;BME280;42503;39.928;-75.152;2023-01-05T03:35:17;100795.19;;;22.40;50.80
56632;BME280;42503;39.928;-75.152;2023-01-05T03:45:44;100794.72;;;22.33;50.75
56632;BME280;42503;39.928;-75.152;2023-01-05T03:55:46;100817.25;;;22.37;50.51
56632;BME280;42503;39.928;-75.152;2023-01-05T04:05:47;100812.88;;;22.25;50.71
56632;BME280;42503;39.928;-75.152;2023-01-05T04:15:51;100805.34;;;22.26;50.56
56632;BME280;42503;39.928;-75.152;2023-01-05T04:25:55;100820.63;;;22.33;50.61
56632;BME280;42503;39.928;-75.152;2023-01-05T04:35:56;100834.03;;;22.31;50.59
56632;BME280;42503;39.928;-75.152;2023-01-05T04:46:00;100836.03;;;22.26;50.33
56632;BME280;42503;39.928;-75.152;2023-01-05T04:56:04;100851.28;;;22.33;50.26
56632;BME280;42503;39.928;-75.152;2023-01-05T05:06:06;100868.28;;;22.37;51.01
56632;BME280;42503;39.928;-75.152;2023-01-05T05:16:10;100844.97;;;22.23;51.25
56632;BME280;42503;39.928;-75.152;2023-01-05T05:26:12;100868.78;;;22.39;51.48
56632;BME280;42503;39.928;-75.152;2023-01-05T05:36:16;100874.94;;;22.41;52.47
56632;BME280;42503;39.928;-75.152;2023-01-05T05:46:20;100871.31;;;22.41;52.08
56632;BME280;42503;39.928;-75.152;2023-01-05T05:56:27;100885.25;;;22.41;51.84
56632;BME280;42503;39.928;-75.152;2023-01-05T06:06:28;100893.63;;;22.36;52.74
56632;BME280;42503;39.928;-75.152;2023-01-05T06:16:30;100927.31;;;22.44;52.74
56632;BME280;42503;39.928;-75.152;2023-01-05T06:26:34;100942.13;;;22.40;51.64
56632;BME280;42503;39.928;-75.152;2023-01-05T06:36:35;100967.22;;;22.40;51.90
56632;BME280;42503;39.928;-75.152;2023-01-05T06:46:37;100970.56;;;22.42;52.04
56632;BME280;42503;39.928;-75.152;2023-01-05T06:56:41;100980.06;;;22.41;51.70
56632;BME280;42503;39.928;-75.152;2023-01-05T07:06:42;100987.84;;;22.39;51.41
56632;BME280;42503;39.928;-75.152;2023-01-05T07:16:44;100990.94;;;22.37;51.25
56632;BME280;42503;39.928;-75.152;2023-01-05T07:26:45;101025.22;;;22.38;51.23
56632;BME280;42503;39.928;-75.152;2023-01-05T07:36:47;101009.47;;;22.18;51.26
56632;BME280;42503;39.928;-75.152;2023-01-05T07:46:49;101014.78;;;22.14;51.12
56632;BME280;42503;39.928;-75.152;2023-01-05T07:56:51;101070.41;;;22.35;51.33
56632;BME280;42503;39.928;-75.152;2023-01-05T08:06:52;101085.47;;;22.33;50.99
56632;BME280;42503;39.928;-75.152;2023-01-05T08:16:54;101095.22;;;22.31;50.94
56632;BME280;42503;39.928;-75.152;2023-01-05T08:26:55;101052.69;;;22.10;50.86
56632;BME280;42503;39.928;-75.152;2023-01-05T08:36:56;101102.75;;;22.30;50.63
56632;BME280;42503;39.928;-75.152;2023-01-05T08:46:58;101106.16;;;22.27;50.81
56632;BME280;42503;39.928;-75.152;2023-01-05T08:56:59;101098.34;;;22.24;50.62
56632;BME280;42503;39.928;-75.152;2023-01-05T09:07:01;101001.09;;;21.58;50.63
56632;BME280;42503;39.928;-75.152;2023-01-05T09:17:02;101107.28;;;22.21;50.40
56632;BME280;42503;39.928;-75.152;2023-01-05T09:27:03;101124.28;;;22.20;50.33
56632;BME280;42503;39.928;-75.152;2023-01-05T09:37:07;101129.03;;;22.19;50.46
56632;BME280;42503;39.928;-75.152;2023-01-05T09:47:16;101138.53;;;22.18;50.29
56632;BME280;42503;39.928;-75.152;2023-01-05T09:57:21;101143.00;;;22.04;50.22
56632;BME280;42503;39.928;-75.152;2023-01-05T10:07:46;101185.06;;;22.13;50.15
56632;BME280;42503;39.928;-75.152;2023-01-05T10:17:50;101186.47;;;22.15;50.20
56632;BME280;42503;39.928;-75.152;2023-01-05T10:49:27;101197.59;;;22.20;49.90
56632;BME280;42503;39.928;-75.152;2023-01-05T10:59:32;101200.09;;;22.17;49.85
56632;BME280;42503;39.928;-75.152;2023-01-05T11:09:39;101199.25;;;22.11;49.66
56632;BME280;42503;39.928;-75.152;2023-01-05T11:19:49;101207.34;;;22.13;49.35
56632;BME280;42503;39.928;-75.152;2023-01-05T11:30:23;101223.53;;;22.05;49.63
56632;BME280;42503;39.928;-75.152;2023-01-05T11:40:29;101231.03;;;22.10;49.77
56632;BME280;42503;39.928;-75.152;2023-01-05T11:50:45;101233.00;;;22.04;49.54
56632;BME280;42503;39.928;-75.152;2023-01-05T12:11:16;101263.38;;;22.06;49.43
56632;BME280;42503;39.928;-75.152;2023-01-05T12:21:23;101268.94;;;22.06;49.60
56632;BME280;42503;39.928;-75.152;2023-01-05T12:31:30;101268.41;;;22.09;49.31
56632;BME280;42503;39.928;-75.152;2023-01-05T12:52:06;101294.03;;;22.11;49.37
56632;BME280;42503;39.928;-75.152;2023-01-05T13:12:36;101326.94;;;22.14;49.56
56632;BME280;42503;39.928;-75.152;2023-01-05T13:22:40;101356.47;;;22.15;49.42
56632;BME280;42503;39.928;-75.152;2023-01-05T13:33:20;101342.25;;;22.12;48.98
56632;BME280;42503;39.928;-75.152;2023-01-05T13:53:56;101346.44;;;22.09;49.07
56632;BME280;42503;39.928;-75.152;2023-01-05T14:04:03;101370.72;;;22.14;48.92
56632;BME280;42503;39.928;-75.152;2023-01-05T14:14:27;101362.59;;;22.02;48.92
56632;BME280;42503;39.928;-75.152;2023-01-05T14:24:38;101387.16;;;22.15;48.45
56632;BME280;42503;39.928;-75.152;2023-01-05T14:34:47;101385.44;;;22.04;48.32
56632;BME280;42503;39.928;-75.152;2023-01-05T15:05:04;101426.47;;;22.14;47.75
56632;BME280;42503;39.928;-75.152;2023-01-05T15:35:55;101413.31;;;22.09;47.31
56632;BME280;42503;39.928;-75.152;2023-01-05T15:45:58;101403.56;;;22.06;47.35
56632;BME280;42503;39.928;-75.152;2023-01-05T15:56:01;101404.16;;;22.14;47.48
56632;BME280;42503;39.928;-75.152;2023-01-05T16:06:09;101387.94;;;22.11;47.34
56632;BME280;42503;39.928;-75.152;2023-01-05T16:16:45;101364.53;;;22.06;47.41
56632;BME280;42503;39.928;-75.152;2023-01-05T16:26:50;101356.47;;;22.10;47.28
56632;BME280;42503;39.928;-75.152;2023-01-05T16:37:03;101348.09;;;22.05;47.22
56632;BME280;42503;39.928;-75.152;2023-01-05T16:47:07;101342.53;;;22.10;47.36
56632;BME280;42503;39.928;-75.152;2023-01-05T16:57:29;101330.81;;;22.03;46.93
56632;BME280;42503;39.928;-75.152;2023-01-05T17:07:32;101315.19;;;22.07;47.01
56632;BME280;42503;39.928;-75.152;2023-01-05T17:17:34;101315.19;;;22.07;46.81
56632;BME280;42503;39.928;-75.152;2023-01-05T17:27:38;101318.56;;;22.09;47.17
56632;BME280;42503;39.928;-75.152;2023-01-05T17:37:45;101287.06;;;22.03;47.65
56632;BME280;42503;39.928;-75.152;2023-01-05T17:47:46;101272.28;;;22.08;47.43
56632;BME280;42503;39.928;-75.152;2023-01-05T17:57:48;101259.47;;;22.07;47.56
56632;BME280;42503;39.928;-75.152;2023-01-05T18:07:49;101257.25;;;22.09;47.75
56632;BME280;42503;39.928;-75.152;2023-01-05T18:17:54;101264.47;;;22.10;47.68
56632;BME280;42503;39.928;-75.152;2023-01-05T18:27:56;101250.56;;;22.15;47.49
56632;BME280;42503;39.928;-75.152;2023-01-05T18:37:57;101239.41;;;22.15;47.23
56632;BME280;42503;39.928;-75.152;2023-01-05T18:48:03;101218.22;;;22.19;47.53
56632;BME280;42503;39.928;-75.152;2023-01-05T18:58:04;101204.31;;;22.14;47.73
56632;BME280;42503;39.928;-75.152;2023-01-05T19:08:07;101181.13;;;22.24;47.98
56632;BME280;42503;39.928;-75.152;2023-01-05T19:18:09;101166.63;;;22.22;47.91
56632;BME280;42503;39.928;-75.152;2023-01-05T19:28:10;101157.41;;;22.26;48.04
56632;BME280;42503;39.928;-75.152;2023-01-05T19:38:12;101126.78;;;22.21;48.12
56632;BME280;42503;39.928;-75.152;2023-01-05T19:48:22;101154.59;;;22.37;47.65
56632;BME280;42503;39.928;-75.152;2023-01-05T19:58:23;101155.97;;;22.39;48.08
56632;BME280;42503;39.928;-75.152;2023-01-05T20:08:25;101144.56;;;22.41;48.69
56632;BME280;42503;39.928;-75.152;2023-01-05T20:18:26;101145.66;;;22.40;48.66
56632;BME280;42503;39.928;-75.152;2023-01-05T20:28:27;101133.66;;;22.39;48.76
56632;BME280;42503;39.928;-75.152;2023-01-05T20:38:32;101152.31;;;22.44;48.83
56632;BME280;42503;39.928;-75.152;2023-01-05T20:48:39;101148.41;;;22.45;49.11
56632;BME280;42503;39.928;-75.152;2023-01-05T20:58:41;101166.84;;;22.46;49.19
56632;BME280;42503;39.928;-75.152;2023-01-05T21:08:45;101175.75;;;22.48;49.38
56632;BME280;42503;39.928;-75.152;2023-01-05T21:18:48;101177.97;;;22.51;48.57
56632;BME280;42503;39.928;-75.152;2023-01-05T21:28:52;101175.44;;;22.54;48.69
56632;BME280;42503;39.928;-75.152;2023-01-05T21:39:06;101181.25;;;22.58;48.88
56632;BME280;42503;39.928;-75.152;2023-01-05T21:49:09;101176.50;;;22.58;48.44
56632;BME280;42503;39.928;-75.152;2023-01-05T21:59:10;101169.53;;;22.61;47.95
56632;BME280;42503;39.928;-75.152;2023-01-05T22:09:12;101161.75;;;22.58;47.94
56632;BME280;42503;39.928;-75.152;2023-01-05T22:19:13;101161.22;;;22.51;47.93
56632;BME280;42503;39.928;-75.152;2023-01-05T22:29:14;101174.00;;;22.62;48.04
56632;BME280;42503;39.928;-75.152;2023-01-05T22:39:16;101181.53;;;22.62;47.84
56632;BME280;42503;39.928;-75.152;2023-01-05T22:49:18;101191.56;;;22.63;48.63
56632;BME280;42503;39.928;-75.152;2023-01-05T22:59:19;101196.53;;;22.71;49.50
56632;BME280;42503;39.928;-75.152;2023-01-05T23:09:21;101191.53;;;22.68;49.64
56632;BME280;42503;39.928;-75.152;2023-01-05T23:19:23;101075.91;;;21.90;48.68
56632;BME280;42503;39.928;-75.152;2023-01-05T23:29:24;101208.88;;;22.60;48.69
56632;BME280;42503;39.928;-75.152;2023-01-05T23:39:26;101232.63;;;22.47;48.44
56632;BME280;42503;39.928;-75.152;2023-01-05T23:49:27;101261.34;;;22.52;48.33
56632;BME280;42503;39.928;-75.152;2023-01-05T23:59:28;101252.19;;;22.37;48.64
